sensor_id;sensor_type;location;lat;lon;timestamp;temperature;humidity
13322;DHT22;6730;46.248;6.930;2022-11-24T00:01:55;6.20;99.90
13322;DHT22;6730;46.248;6.930;2022-11-24T00:04:21;6.20;99.90
13322;DHT22;6730;46.248;6.930;2022-11-24T00:06:46;6.10;99.90
13322;DHT22;6730;46.248;6.930;2022-11-24T00:09:12;6.30;99.90
13322;DHT22;6730;46.248;6.930;2022-11-24T00:11:38;6.30;99.90
13322;DHT22;6730;46.248;6.930;2022-11-24T00:14:04;6.20;99.90
13322;DHT22;6730;46.248;6.930;2022-11-24T00:16:32;6.10;99.90
13322;DHT22;6730;46.248;6.930;2022-11-24T00:18:59;6.10;99.90
13322;DHT22;6730;46.248;6.930;2022-11-24T00:21:26;6.20;99.90
13322;DHT22;6730;46.248;6.930;2022-11-24T00:23:53;6.20;99.90
13322;DHT22;6730;46.248;6.930;2022-11-24T00:26:30;6.20;99.90
13322;DHT22;6730;46.248;6.930;2022-11-24T00:28:58;6.10;99.90
13322;DHT22;6730;46.248;6.930;2022-11-24T00:31:33;5.90;99.90
13322;DHT22;6730;46.248;6.930;2022-11-24T00:34:01;6.20;99.90
13322;DHT22;6730;46.248;6.930;2022-11-24T00:36:29;6.20;99.90
13322;DHT22;6730;46.248;6.930;2022-11-24T00:38:57;6.00;99.90
13322;DHT22;6730;46.248;6.930;2022-11-24T00:41:24;5.70;99.90
13322;DHT22;6730;46.248;6.930;2022-11-24T00:43:50;5.70;99.90
13322;DHT22;6730;46.248;6.930;2022-11-24T00:46:16;5.70;99.90
13322;DHT22;6730;46.248;6.930;2022-11-24T00:48:42;5.70;99.90
13322;DHT22;6730;46.248;6.930;2022-11-24T00:51:10;5.70;99.90
13322;DHT22;6730;46.248;6.930;2022-11-24T00:53:36;5.60;99.90
13322;DHT22;6730;46.248;6.930;2022-11-24T00:56:02;5.70;99.90
13322;DHT22;6730;46.248;6.930;2022-11-24T00:58:28;5.60;99.90
13322;DHT22;6730;46.248;6.930;2022-11-24T01:00:54;5.60;99.90
13322;DHT22;6730;46.248;6.930;2022-11-24T01:03:25;5.60;99.90
13322;DHT22;6730;46.248;6.930;2022-11-24T01:05:51;5.60;99.90
13322;DHT22;6730;46.248;6.930;2022-11-24T01:08:16;6.10;99.90
13322;DHT22;6730;46.248;6.930;2022-11-24T01:10:42;6.10;99.90
13322;DHT22;6730;46.248;6.930;2022-11-24T01:13:08;5.80;99.90
13322;DHT22;6730;46.248;6.930;2022-11-24T01:15:35;5.90;99.90
13322;DHT22;6730;46.248;6.930;2022-11-24T01:18:01;5.70;99.90
13322;DHT22;6730;46.248;6.930;2022-11-24T01:20:27;5.50;99.90
13322;DHT22;6730;46.248;6.930;2022-11-24T01:22:52;5.40;99.90
13322;DHT22;6730;46.248;6.930;2022-11-24T01:25:18;5.40;99.90
13322;DHT22;6730;46.248;6.930;2022-11-24T01:27:43;5.50;99.90
13322;DHT22;6730;46.248;6.930;2022-11-24T01:30:09;5.60;99.90
13322;DHT22;6730;46.248;6.930;2022-11-24T01:32:35;5.70;99.90
13322;DHT22;6730;46.248;6.930;2022-11-24T01:35:05;5.60;99.90
13322;DHT22;6730;46.248;6.930;2022-11-24T01:37:31;5.60;99.90
13322;DHT22;6730;46.248;6.930;2022-11-24T01:39:57;5.70;99.90
13322;DHT22;6730;46.248;6.930;2022-11-24T01:42:23;6.00;99.90
13322;DHT22;6730;46.248;6.930;2022-11-24T01:45:29;5.70;99.90
13322;DHT22;6730;46.248;6.930;2022-11-24T01:47:56;5.70;99.90
13322;DHT22;6730;46.248;6.930;2022-11-24T01:50:22;5.80;99.90
13322;DHT22;6730;46.248;6.930;2022-11-24T01:52:51;5.80;99.90
13322;DHT22;6730;46.248;6.930;2022-11-24T01:55:22;5.80;99.90
13322;DHT22;6730;46.248;6.930;2022-11-24T01:58:02;6.10;99.90
13322;DHT22;6730;46.248;6.930;2022-11-24T02:00:29;6.40;99.90
13322;DHT22;6730;46.248;6.930;2022-11-24T02:02:56;6.70;99.90
13322;DHT22;6730;46.248;6.930;2022-11-24T02:05:37;6.50;99.90
13322;DHT22;6730;46.248;6.930;2022-11-24T02:08:09;6.60;99.90
13322;DHT22;6730;46.248;6.930;2022-11-24T02:10:36;6.60;99.90
13322;DHT22;6730;46.248;6.930;2022-11-24T02:13:03;6.30;99.90
13322;DHT22;6730;46.248;6.930;2022-11-24T02:15:29;6.20;99.90
13322;DHT22;6730;46.248;6.930;2022-11-24T02:17:57;6.00;99.90
13322;DHT22;6730;46.248;6.930;2022-11-24T02:20:23;6.00;99.90
13322;DHT22;6730;46.248;6.930;2022-11-24T02:23:13;5.90;99.90
13322;DHT22;6730;46.248;6.930;2022-11-24T02:26:04;5.70;99.90
13322;DHT22;6730;46.248;6.930;2022-11-24T02:28:34;5.60;99.90
13322;DHT22;6730;46.248;6.930;2022-11-24T02:31:00;5.70;99.90
13322;DHT22;6730;46.248;6.930;2022-11-24T02:33:26;5.70;99.90
13322;DHT22;6730;46.248;6.930;2022-11-24T02:35:52;5.60;99.90
13322;DHT22;6730;46.248;6.930;2022-11-24T02:38:27;5.60;99.90
13322;DHT22;6730;46.248;6.930;2022-11-24T02:40:53;5.60;99.90
13322;DHT22;6730;46.248;6.930;2022-11-24T02:43:21;5.80;99.90
13322;DHT22;6730;46.248;6.930;2022-11-24T02:45:47;5.80;99.90
13322;DHT22;6730;46.248;6.930;2022-11-24T02:48:17;5.60;99.90
13322;DHT22;6730;46.248;6.930;2022-11-24T02:50:44;5.60;99.90
13322;DHT22;6730;46.248;6.930;2022-11-24T02:53:10;5.70;99.90
13322;DHT22;6730;46.248;6.930;2022-11-24T02:55:36;5.70;99.90
13322;DHT22;6730;46.248;6.930;2022-11-24T02:58:02;5.80;99.90
13322;DHT22;6730;46.248;6.930;2022-11-24T03:00:28;6.00;99.90
13322;DHT22;6730;46.248;6.930;2022-11-24T03:02:53;6.30;99.90
13322;DHT22;6730;46.248;6.930;2022-11-24T03:05:19;6.70;99.90
13322;DHT22;6730;46.248;6.930;2022-11-24T03:07:45;6.60;99.90
13322;DHT22;6730;46.248;6.930;2022-11-24T03:10:11;6.00;99.90
13322;DHT22;6730;46.248;6.930;2022-11-24T03:12:36;5.80;99.90
13322;DHT22;6730;46.248;6.930;2022-11-24T03:15:03;5.80;99.90
13322;DHT22;6730;46.248;6.930;2022-11-24T03:17:29;6.10;99.90
13322;DHT22;6730;46.248;6.930;2022-11-24T03:19:55;6.10;99.90
13322;DHT22;6730;46.248;6.930;2022-11-24T03:22:20;6.00;99.90
13322;DHT22;6730;46.248;6.930;2022-11-24T03:24:46;5.80;99.90
13322;DHT22;6730;46.248;6.930;2022-11-24T03:27:12;5.70;99.90
13322;DHT22;6730;46.248;6.930;2022-11-24T03:29:37;5.70;99.90
13322;DHT22;6730;46.248;6.930;2022-11-24T03:32:03;5.70;99.90
13322;DHT22;6730;46.248;6.930;2022-11-24T03:34:29;5.50;99.90
13322;DHT22;6730;46.248;6.930;2022-11-24T03:36:55;5.30;99.90
13322;DHT22;6730;46.248;6.930;2022-11-24T03:39:20;5.20;99.90
13322;DHT22;6730;46.248;6.930;2022-11-24T03:41:46;5.20;99.90
13322;DHT22;6730;46.248;6.930;2022-11-24T03:44:12;5.40;99.90
13322;DHT22;6730;46.248;6.930;2022-11-24T03:46:37;5.50;99.90
13322;DHT22;6730;46.248;6.930;2022-11-24T03:49:03;5.50;99.90
13322;DHT22;6730;46.248;6.930;2022-11-24T03:51:28;5.40;99.90
13322;DHT22;6730;46.248;6.930;2022-11-24T03:53:54;5.30;99.90
13322;DHT22;6730;46.248;6.930;2022-11-24T03:56:19;5.00;99.90
13322;DHT22;6730;46.248;6.930;2022-11-24T03:58:45;5.10;99.90
13322;DHT22;6730;46.248;6.930;2022-11-24T04:01:11;5.10;99.90
13322;DHT22;6730;46.248;6.930;2022-11-24T04:03:36;5.10;99.90
13322;DHT22;6730;46.248;6.930;2022-11-24T04:06:02;5.10;99.90
13322;DHT22;6730;46.248;6.930;2022-11-24T04:08:28;5.20;99.90
13322;DHT22;6730;46.248;6.930;2022-11-24T04:10:54;5.40;99.90
13322;DHT22;6730;46.248;6.930;2022-11-24T04:13:21;5.30;99.90
13322;DHT22;6730;46.248;6.930;2022-11-24T04:15:47;5.50;99.90
13322;DHT22;6730;46.248;6.930;2022-11-24T04:18:13;5.40;99.90
13322;DHT22;6730;46.248;6.930;2022-11-24T04:20:39;5.30;99.90
13322;DHT22;6730;46.248;6.930;2022-11-24T04:23:05;5.10;99.90
13322;DHT22;6730;46.248;6.930;2022-11-24T04:25:31;5.10;99.90
13322;DHT22;6730;46.248;6.930;2022-11-24T04:27:57;5.20;99.90
13322;DHT22;6730;46.248;6.930;2022-11-24T04:30:24;5.30;99.90
13322;DHT22;6730;46.248;6.930;2022-11-24T04:32:50;5.40;99.90
13322;DHT22;6730;46.248;6.930;2022-11-24T04:35:17;5.60;99.90
13322;DHT22;6730;46.248;6.930;2022-11-24T04:37:42;5.70;99.90
13322;DHT22;6730;46.248;6.930;2022-11-24T04:40:09;5.90;99.90
13322;DHT22;6730;46.248;6.930;2022-11-24T04:42:35;5.70;99.90
13322;DHT22;6730;46.248;6.930;2022-11-24T04:45:02;5.50;99.90
13322;DHT22;6730;46.248;6.930;2022-11-24T04:47:27;5.30;99.90
13322;DHT22;6730;46.248;6.930;2022-11-24T04:49:54;5.30;99.90
13322;DHT22;6730;46.248;6.930;2022-11-24T04:52:21;5.30;99.90
13322;DHT22;6730;46.248;6.930;2022-11-24T04:54:48;5.50;99.90
13322;DHT22;6730;46.248;6.930;2022-11-24T04:57:17;5.70;99.90
13322;DHT22;6730;46.248;6.930;2022-11-24T04:59:43;5.80;99.90
13322;DHT22;6730;46.248;6.930;2022-11-24T05:02:09;5.80;99.90
13322;DHT22;6730;46.248;6.930;2022-11-24T05:04:35;5.80;99.90
13322;DHT22;6730;46.248;6.930;2022-11-24T05:07:01;5.90;99.90
13322;DHT22;6730;46.248;6.930;2022-11-24T05:09:27;5.80;99.90
13322;DHT22;6730;46.248;6.930;2022-11-24T05:11:52;5.60;99.90
13322;DHT22;6730;46.248;6.930;2022-11-24T05:14:18;5.60;99.90
13322;DHT22;6730;46.248;6.930;2022-11-24T05:16:43;5.40;99.90
13322;DHT22;6730;46.248;6.930;2022-11-24T05:19:09;5.40;99.90
13322;DHT22;6730;46.248;6.930;2022-11-24T05:21:35;5.50;99.90
13322;DHT22;6730;46.248;6.930;2022-11-24T05:24:01;5.60;99.90
13322;DHT22;6730;46.248;6.930;2022-11-24T05:26:28;5.70;99.90
13322;DHT22;6730;46.248;6.930;2022-11-24T05:28:54;5.60;99.90
13322;DHT22;6730;46.248;6.930;2022-11-24T05:31:20;5.60;99.90
13322;DHT22;6730;46.248;6.930;2022-11-24T05:33:45;5.60;99.90
13322;DHT22;6730;46.248;6.930;2022-11-24T05:36:11;5.50;99.90
13322;DHT22;6730;46.248;6.930;2022-11-24T05:38:55;5.50;99.90
13322;DHT22;6730;46.248;6.930;2022-11-24T05:41:21;5.60;99.90
13322;DHT22;6730;46.248;6.930;2022-11-24T05:43:47;5.50;99.90
13322;DHT22;6730;46.248;6.930;2022-11-24T05:46:13;5.60;99.90
13322;DHT22;6730;46.248;6.930;2022-11-24T05:48:38;5.60;99.90
13322;DHT22;6730;46.248;6.930;2022-11-24T05:51:05;5.60;99.90
13322;DHT22;6730;46.248;6.930;2022-11-24T05:53:32;5.60;99.90
13322;DHT22;6730;46.248;6.930;2022-11-24T05:55:57;5.50;99.90
13322;DHT22;6730;46.248;6.930;2022-11-24T05:58:23;5.40;99.90
13322;DHT22;6730;46.248;6.930;2022-11-24T06:00:49;5.30;99.90
13322;DHT22;6730;46.248;6.930;2022-11-24T06:03:15;5.50;99.90
13322;DHT22;6730;46.248;6.930;2022-11-24T06:05:45;5.40;99.90
13322;DHT22;6730;46.248;6.930;2022-11-24T06:08:11;5.40;99.90
13322;DHT22;6730;46.248;6.930;2022-11-24T06:10:37;5.20;99.90
13322;DHT22;6730;46.248;6.930;2022-11-24T06:13:06;5.30;99.90
13322;DHT22;6730;46.248;6.930;2022-11-24T06:15:33;5.30;99.90
13322;DHT22;6730;46.248;6.930;2022-11-24T06:17:59;5.20;99.90
13322;DHT22;6730;46.248;6.930;2022-11-24T06:20:25;5.20;99.90
13322;DHT22;6730;46.248;6.930;2022-11-24T06:22:51;5.30;99.90
13322;DHT22;6730;46.248;6.930;2022-11-24T06:25:17;5.30;99.90
13322;DHT22;6730;46.248;6.930;2022-11-24T06:27:43;5.20;99.90
13322;DHT22;6730;46.248;6.930;2022-11-24T06:30:09;5.10;99.90
13322;DHT22;6730;46.248;6.930;2022-11-24T06:32:35;5.10;99.90
13322;DHT22;6730;46.248;6.930;2022-11-24T06:35:01;5.10;99.90
13322;DHT22;6730;46.248;6.930;2022-11-24T06:37:27;5.10;99.90
13322;DHT22;6730;46.248;6.930;2022-11-24T06:39:52;5.00;99.90
13322;DHT22;6730;46.248;6.930;2022-11-24T06:42:18;5.10;99.90
13322;DHT22;6730;46.248;6.930;2022-11-24T06:44:46;5.10;99.90
13322;DHT22;6730;46.248;6.930;2022-11-24T06:47:12;5.10;99.90
13322;DHT22;6730;46.248;6.930;2022-11-24T06:49:38;5.10;99.90
13322;DHT22;6730;46.248;6.930;2022-11-24T06:52:04;5.10;99.90
13322;DHT22;6730;46.248;6.930;2022-11-24T06:54:30;5.10;99.90
13322;DHT22;6730;46.248;6.930;2022-11-24T06:56:56;5.20;99.90
13322;DHT22;6730;46.248;6.930;2022-11-24T06:59:22;5.10;99.90
13322;DHT22;6730;46.248;6.930;2022-11-24T07:01:48;5.10;99.90
13322;DHT22;6730;46.248;6.930;2022-11-24T07:04:14;5.20;99.90
13322;DHT22;6730;46.248;6.930;2022-11-24T07:06:40;5.20;99.90
13322;DHT22;6730;46.248;6.930;2022-11-24T07:09:10;5.10;99.90
13322;DHT22;6730;46.248;6.930;2022-11-24T07:11:37;5.10;99.90
13322;DHT22;6730;46.248;6.930;2022-11-24T07:14:03;5.10;99.90
13322;DHT22;6730;46.248;6.930;2022-11-24T07:16:30;5.20;99.90
13322;DHT22;6730;46.248;6.930;2022-11-24T07:18:56;5.20;99.90
13322;DHT22;6730;46.248;6.930;2022-11-24T07:21:23;5.30;99.90
13322;DHT22;6730;46.248;6.930;2022-11-24T07:23:50;5.60;99.90
13322;DHT22;6730;46.248;6.930;2022-11-24T07:26:16;5.80;99.90
13322;DHT22;6730;46.248;6.930;2022-11-24T07:28:42;5.70;99.90
13322;DHT22;6730;46.248;6.930;2022-11-24T07:31:12;5.60;99.90
13322;DHT22;6730;46.248;6.930;2022-11-24T07:33:38;5.60;99.90
13322;DHT22;6730;46.248;6.930;2022-11-24T07:36:05;5.60;99.90
13322;DHT22;6730;46.248;6.930;2022-11-24T07:38:31;5.70;99.90
13322;DHT22;6730;46.248;6.930;2022-11-24T07:41:02;6.10;99.90
13322;DHT22;6730;46.248;6.930;2022-11-24T07:43:30;7.00;99.90
13322;DHT22;6730;46.248;6.930;2022-11-24T07:45:56;9.00;99.90
13322;DHT22;6730;46.248;6.930;2022-11-24T07:48:21;10.60;99.90
13322;DHT22;6730;46.248;6.930;2022-11-24T07:50:48;11.50;99.90
13322;DHT22;6730;46.248;6.930;2022-11-24T07:53:13;11.90;99.90
13322;DHT22;6730;46.248;6.930;2022-11-24T07:55:39;11.10;99.90
13322;DHT22;6730;46.248;6.930;2022-11-24T07:58:05;10.10;99.90
13322;DHT22;6730;46.248;6.930;2022-11-24T08:00:30;9.80;99.90
13322;DHT22;6730;46.248;6.930;2022-11-24T08:02:56;10.50;99.90
13322;DHT22;6730;46.248;6.930;2022-11-24T08:05:21;11.10;99.90
13322;DHT22;6730;46.248;6.930;2022-11-24T08:07:47;11.60;99.90
13322;DHT22;6730;46.248;6.930;2022-11-24T08:10:13;11.60;99.90
13322;DHT22;6730;46.248;6.930;2022-11-24T08:12:39;11.50;99.90
13322;DHT22;6730;46.248;6.930;2022-11-24T08:15:05;11.20;99.90
13322;DHT22;6730;46.248;6.930;2022-11-24T08:17:32;11.10;99.90
13322;DHT22;6730;46.248;6.930;2022-11-24T08:19:57;11.00;99.90
13322;DHT22;6730;46.248;6.930;2022-11-24T08:22:23;12.00;99.90
13322;DHT22;6730;46.248;6.930;2022-11-24T08:24:49;13.10;99.90
13322;DHT22;6730;46.248;6.930;2022-11-24T08:27:17;12.80;99.90
13322;DHT22;6730;46.248;6.930;2022-11-24T08:29:43;12.50;99.90
13322;DHT22;6730;46.248;6.930;2022-11-24T08:32:09;11.80;99.90
13322;DHT22;6730;46.248;6.930;2022-11-24T08:34:35;11.10;99.90
13322;DHT22;6730;46.248;6.930;2022-11-24T08:37:05;10.00;99.90
13322;DHT22;6730;46.248;6.930;2022-11-24T08:39:31;10.10;99.90
13322;DHT22;6730;46.248;6.930;2022-11-24T08:41:57;10.80;99.90
13322;DHT22;6730;46.248;6.930;2022-11-24T08:44:23;11.20;99.90
13322;DHT22;6730;46.248;6.930;2022-11-24T08:46:49;11.90;99.90
13322;DHT22;6730;46.248;6.930;2022-11-24T08:49:15;11.00;99.90
13322;DHT22;6730;46.248;6.930;2022-11-24T08:51:41;10.20;99.90
13322;DHT22;6730;46.248;6.930;2022-11-24T08:54:09;10.50;99.90
13322;DHT22;6730;46.248;6.930;2022-11-24T08:56:38;11.90;99.90
13322;DHT22;6730;46.248;6.930;2022-11-24T08:59:03;13.30;99.90
13322;DHT22;6730;46.248;6.930;2022-11-24T09:01:29;13.60;99.90
13322;DHT22;6730;46.248;6.930;2022-11-24T09:03:58;13.20;99.90
13322;DHT22;6730;46.248;6.930;2022-11-24T09:06:26;14.00;99.90
13322;DHT22;6730;46.248;6.930;2022-11-24T09:08:55;14.10;99.90
13322;DHT22;6730;46.248;6.930;2022-11-24T09:11:22;14.40;99.90
13322;DHT22;6730;46.248;6.930;2022-11-24T09:13:48;14.80;99.90
13322;DHT22;6730;46.248;6.930;2022-11-24T09:16:20;15.40;99.90
13322;DHT22;6730;46.248;6.930;2022-11-24T09:18:46;16.20;99.90
13322;DHT22;6730;46.248;6.930;2022-11-24T09:23:38;16.10;99.90
13322;DHT22;6730;46.248;6.930;2022-11-24T09:26:07;14.90;99.90
13322;DHT22;6730;46.248;6.930;2022-11-24T09:28:34;15.20;99.90
13322;DHT22;6730;46.248;6.930;2022-11-24T09:31:04;14.80;99.90
13322;DHT22;6730;46.248;6.930;2022-11-24T09:33:30;15.00;99.90
13322;DHT22;6730;46.248;6.930;2022-11-24T09:35:56;15.40;99.90
13322;DHT22;6730;46.248;6.930;2022-11-24T09:38:22;16.00;99.90
13322;DHT22;6730;46.248;6.930;2022-11-24T09:40:49;16.80;99.90
13322;DHT22;6730;46.248;6.930;2022-11-24T09:43:37;15.90;99.90
13322;DHT22;6730;46.248;6.930;2022-11-24T09:46:19;14.80;99.90
13322;DHT22;6730;46.248;6.930;2022-11-24T09:48:50;14.50;99.90
13322;DHT22;6730;46.248;6.930;2022-11-24T09:51:20;14.20;99.90
13322;DHT22;6730;46.248;6.930;2022-11-24T09:56:27;16.00;99.90
13322;DHT22;6730;46.248;6.930;2022-11-24T10:01:40;14.30;99.90
13322;DHT22;6730;46.248;6.930;2022-11-24T10:04:25;13.60;99.90
13322;DHT22;6730;46.248;6.930;2022-11-24T10:14:40;16.00;99.90
13322;DHT22;6730;46.248;6.930;2022-11-24T10:20:55;16.90;99.90
13322;DHT22;6730;46.248;6.930;2022-11-24T10:28:52;16.20;99.90
13322;DHT22;6730;46.248;6.930;2022-11-24T10:33:56;15.80;99.90
13322;DHT22;6730;46.248;6.930;2022-11-24T10:36:50;15.20;99.90
13322;DHT22;6730;46.248;6.930;2022-11-24T10:39:22;14.10;99.90
13322;DHT22;6730;46.248;6.930;2022-11-24T10:41:59;12.40;99.90
13322;DHT22;6730;46.248;6.930;2022-11-24T10:44:27;12.00;99.90
13322;DHT22;6730;46.248;6.930;2022-11-24T10:46:53;12.20;99.90
13322;DHT22;6730;46.248;6.930;2022-11-24T10:49:23;12.40;99.90
13322;DHT22;6730;46.248;6.930;2022-11-24T10:52:11;12.20;99.90
13322;DHT22;6730;46.248;6.930;2022-11-24T10:54:53;12.30;99.90
13322;DHT22;6730;46.248;6.930;2022-11-24T10:59:53;14.30;99.90
13322;DHT22;6730;46.248;6.930;2022-11-24T11:02:39;14.50;99.90
13322;DHT22;6730;46.248;6.930;2022-11-24T11:05:40;14.70;99.90
13322;DHT22;6730;46.248;6.930;2022-11-24T11:10:39;14.40;99.90
13322;DHT22;6730;46.248;6.930;2022-11-24T11:13:28;14.50;99.90
13322;DHT22;6730;46.248;6.930;2022-11-24T11:15:56;14.90;99.90
13322;DHT22;6730;46.248;6.930;2022-11-24T11:18:31;15.20;99.90
13322;DHT22;6730;46.248;6.930;2022-11-24T11:21:00;14.90;99.90
13322;DHT22;6730;46.248;6.930;2022-11-24T11:23:34;14.70;99.90
13322;DHT22;6730;46.248;6.930;2022-11-24T11:29:12;13.60;99.90
13322;DHT22;6730;46.248;6.930;2022-11-24T11:31:38;13.20;99.90
13322;DHT22;6730;46.248;6.930;2022-11-24T11:34:14;13.50;99.90
13322;DHT22;6730;46.248;6.930;2022-11-24T11:36:44;12.70;99.90
13322;DHT22;6730;46.248;6.930;2022-11-24T11:42:17;11.30;99.90
13322;DHT22;6730;46.248;6.930;2022-11-24T11:45:13;12.70;99.90
13322;DHT22;6730;46.248;6.930;2022-11-24T11:47:52;13.00;99.90
13322;DHT22;6730;46.248;6.930;2022-11-24T11:50:26;13.20;99.90
13322;DHT22;6730;46.248;6.930;2022-11-24T12:01:55;13.10;99.90
13322;DHT22;6730;46.248;6.930;2022-11-24T12:04:53;12.50;99.90
13322;DHT22;6730;46.248;6.930;2022-11-24T12:15:57;12.30;99.90
13322;DHT22;6730;46.248;6.930;2022-11-24T12:21:22;12.70;99.90
13322;DHT22;6730;46.248;6.930;2022-11-24T12:26:54;11.80;99.90
13322;DHT22;6730;46.248;6.930;2022-11-24T12:32:43;12.40;99.90
13322;DHT22;6730;46.248;6.930;2022-11-24T12:35:24;12.40;99.90
13322;DHT22;6730;46.248;6.930;2022-11-24T12:44:10;10.70;99.90
13322;DHT22;6730;46.248;6.930;2022-11-24T12:54:49;9.70;99.90
13322;DHT22;6730;46.248;6.930;2022-11-24T12:57:23;9.70;99.90
13322;DHT22;6730;46.248;6.930;2022-11-24T13:05:21;9.20;99.90
13322;DHT22;6730;46.248;6.930;2022-11-24T13:07:58;9.50;99.90
13322;DHT22;6730;46.248;6.930;2022-11-24T13:10:38;9.60;99.90
13322;DHT22;6730;46.248;6.930;2022-11-24T13:13:05;9.20;99.90
13322;DHT22;6730;46.248;6.930;2022-11-24T13:16:00;9.00;99.90
13322;DHT22;6730;46.248;6.930;2022-11-24T13:18:51;9.20;99.90
13322;DHT22;6730;46.248;6.930;2022-11-24T13:24:00;9.10;99.90
13322;DHT22;6730;46.248;6.930;2022-11-24T13:29:03;8.50;99.90
13322;DHT22;6730;46.248;6.930;2022-11-24T13:31:30;8.60;99.90
13322;DHT22;6730;46.248;6.930;2022-11-24T13:33:56;9.00;99.90
13322;DHT22;6730;46.248;6.930;2022-11-24T13:47:01;8.70;99.90
13322;DHT22;6730;46.248;6.930;2022-11-24T13:49:41;8.80;99.90
13322;DHT22;6730;46.248;6.930;2022-11-24T13:57:47;9.20;99.90
13322;DHT22;6730;46.248;6.930;2022-11-24T14:00:29;9.70;99.90
13322;DHT22;6730;46.248;6.930;2022-11-24T14:03:02;9.90;99.90
13322;DHT22;6730;46.248;6.930;2022-11-24T14:05:46;10.20;99.90
13322;DHT22;6730;46.248;6.930;2022-11-24T14:08:35;10.80;99.90
13322;DHT22;6730;46.248;6.930;2022-11-24T14:11:13;11.20;99.90
13322;DHT22;6730;46.248;6.930;2022-11-24T14:13:39;10.80;99.90
13322;DHT22;6730;46.248;6.930;2022-11-24T14:18:35;11.00;99.90
13322;DHT22;6730;46.248;6.930;2022-11-24T14:21:37;10.90;99.90
13322;DHT22;6730;46.248;6.930;2022-11-24T14:24:32;10.60;99.90
13322;DHT22;6730;46.248;6.930;2022-11-24T14:26:58;10.70;99.90
13322;DHT22;6730;46.248;6.930;2022-11-24T14:29:24;11.10;99.90
13322;DHT22;6730;46.248;6.930;2022-11-24T14:32:01;11.40;99.90
13322;DHT22;6730;46.248;6.930;2022-11-24T14:34:31;11.50;99.90
13322;DHT22;6730;46.248;6.930;2022-11-24T14:36:59;11.50;99.90
13322;DHT22;6730;46.248;6.930;2022-11-24T14:39:26;11.50;99.90
13322;DHT22;6730;46.248;6.930;2022-11-24T14:42:03;11.40;99.90
13322;DHT22;6730;46.248;6.930;2022-11-24T14:47:28;10.80;99.90
13322;DHT22;6730;46.248;6.930;2022-11-24T14:49:56;10.60;99.90
13322;DHT22;6730;46.248;6.930;2022-11-24T14:52:22;10.30;99.90
13322;DHT22;6730;46.248;6.930;2022-11-24T14:54:58;10.10;99.90
13322;DHT22;6730;46.248;6.930;2022-11-24T14:57:29;9.90;99.90
13322;DHT22;6730;46.248;6.930;2022-11-24T15:02:53;9.70;99.90
13322;DHT22;6730;46.248;6.930;2022-11-24T15:05:22;9.80;99.90
13322;DHT22;6730;46.248;6.930;2022-11-24T15:07:50;9.60;99.90
13322;DHT22;6730;46.248;6.930;2022-11-24T15:10:33;9.40;99.90
13322;DHT22;6730;46.248;6.930;2022-11-24T15:13:03;9.30;99.90
13322;DHT22;6730;46.248;6.930;2022-11-24T15:15:32;9.20;99.90
13322;DHT22;6730;46.248;6.930;2022-11-24T15:18:00;9.10;99.90
13322;DHT22;6730;46.248;6.930;2022-11-24T15:20:33;9.00;99.90
13322;DHT22;6730;46.248;6.930;2022-11-24T15:25:50;9.40;99.90
13322;DHT22;6730;46.248;6.930;2022-11-24T15:28:16;9.40;99.90
13322;DHT22;6730;46.248;6.930;2022-11-24T15:30:41;9.10;99.90
13322;DHT22;6730;46.248;6.930;2022-11-24T15:33:15;8.90;99.90
13322;DHT22;6730;46.248;6.930;2022-11-24T15:35:41;8.90;99.90
13322;DHT22;6730;46.248;6.930;2022-11-24T15:38:07;8.70;99.90
13322;DHT22;6730;46.248;6.930;2022-11-24T15:40:35;8.50;99.90
13322;DHT22;6730;46.248;6.930;2022-11-24T15:43:01;8.30;99.90
13322;DHT22;6730;46.248;6.930;2022-11-24T15:45:27;8.30;99.90
13322;DHT22;6730;46.248;6.930;2022-11-24T15:47:52;8.40;99.90
13322;DHT22;6730;46.248;6.930;2022-11-24T15:50:18;8.40;99.90
13322;DHT22;6730;46.248;6.930;2022-11-24T15:52:45;8.30;99.90
13322;DHT22;6730;46.248;6.930;2022-11-24T15:55:17;8.40;99.90
13322;DHT22;6730;46.248;6.930;2022-11-24T15:57:43;8.40;99.90
13322;DHT22;6730;46.248;6.930;2022-11-24T16:00:19;8.40;99.90
13322;DHT22;6730;46.248;6.930;2022-11-24T16:02:45;8.60;99.90
13322;DHT22;6730;46.248;6.930;2022-11-24T16:05:11;8.50;99.90
13322;DHT22;6730;46.248;6.930;2022-11-24T16:07:38;8.50;99.90
13322;DHT22;6730;46.248;6.930;2022-11-24T16:10:06;8.30;99.90
13322;DHT22;6730;46.248;6.930;2022-11-24T16:12:31;8.00;99.90
13322;DHT22;6730;46.248;6.930;2022-11-24T16:14:57;7.80;99.90
13322;DHT22;6730;46.248;6.930;2022-11-24T16:17:23;7.80;99.90
13322;DHT22;6730;46.248;6.930;2022-11-24T16:19:48;7.80;99.90
13322;DHT22;6730;46.248;6.930;2022-11-24T16:22:14;7.90;99.90
13322;DHT22;6730;46.248;6.930;2022-11-24T16:24:40;7.90;99.90
13322;DHT22;6730;46.248;6.930;2022-11-24T16:27:05;7.70;99.90
13322;DHT22;6730;46.248;6.930;2022-11-24T16:29:31;7.60;99.90
13322;DHT22;6730;46.248;6.930;2022-11-24T16:31:56;7.70;99.90
13322;DHT22;6730;46.248;6.930;2022-11-24T16:34:22;7.60;99.90
13322;DHT22;6730;46.248;6.930;2022-11-24T16:36:48;7.60;99.90
13322;DHT22;6730;46.248;6.930;2022-11-24T16:39:14;7.60;99.90
13322;DHT22;6730;46.248;6.930;2022-11-24T16:41:39;7.50;99.90
13322;DHT22;6730;46.248;6.930;2022-11-24T16:44:05;7.80;99.90
13322;DHT22;6730;46.248;6.930;2022-11-24T16:46:31;7.80;99.90
13322;DHT22;6730;46.248;6.930;2022-11-24T16:48:57;7.60;99.90
13322;DHT22;6730;46.248;6.930;2022-11-24T16:51:28;7.50;99.90
13322;DHT22;6730;46.248;6.930;2022-11-24T16:53:59;7.20;99.90
13322;DHT22;6730;46.248;6.930;2022-11-24T16:56:26;7.10;99.90
13322;DHT22;6730;46.248;6.930;2022-11-24T16:58:52;7.20;99.90
13322;DHT22;6730;46.248;6.930;2022-11-24T17:01:19;7.30;99.90
13322;DHT22;6730;46.248;6.930;2022-11-24T17:03:45;7.40;99.90
13322;DHT22;6730;46.248;6.930;2022-11-24T17:06:13;7.60;99.90
13322;DHT22;6730;46.248;6.930;2022-11-24T17:08:43;7.60;99.90
13322;DHT22;6730;46.248;6.930;2022-11-24T17:11:11;7.40;99.90
13322;DHT22;6730;46.248;6.930;2022-11-24T17:13:38;7.30;99.90
13322;DHT22;6730;46.248;6.930;2022-11-24T17:16:05;7.30;99.90
13322;DHT22;6730;46.248;6.930;2022-11-24T17:18:31;7.20;99.90
13322;DHT22;6730;46.248;6.930;2022-11-24T17:20:58;7.30;99.90
13322;DHT22;6730;46.248;6.930;2022-11-24T17:23:24;7.20;99.90
13322;DHT22;6730;46.248;6.930;2022-11-24T17:25:50;7.30;99.90
13322;DHT22;6730;46.248;6.930;2022-11-24T17:28:16;7.30;99.90
13322;DHT22;6730;46.248;6.930;2022-11-24T17:30:41;7.30;99.90
13322;DHT22;6730;46.248;6.930;2022-11-24T17:33:07;7.50;99.90
13322;DHT22;6730;46.248;6.930;2022-11-24T17:35:33;7.80;99.90
13322;DHT22;6730;46.248;6.930;2022-11-24T17:37:59;7.60;99.90
13322;DHT22;6730;46.248;6.930;2022-11-24T17:40:26;7.40;99.90
13322;DHT22;6730;46.248;6.930;2022-11-24T17:42:51;7.40;99.90
13322;DHT22;6730;46.248;6.930;2022-11-24T17:45:17;7.30;99.90
13322;DHT22;6730;46.248;6.930;2022-11-24T17:47:43;7.40;99.90
13322;DHT22;6730;46.248;6.930;2022-11-24T17:50:09;7.80;99.90
13322;DHT22;6730;46.248;6.930;2022-11-24T17:52:34;7.80;99.90
13322;DHT22;6730;46.248;6.930;2022-11-24T17:55:00;8.10;99.90
13322;DHT22;6730;46.248;6.930;2022-11-24T17:57:26;8.10;99.90
13322;DHT22;6730;46.248;6.930;2022-11-24T17:59:52;8.20;99.90
13322;DHT22;6730;46.248;6.930;2022-11-24T18:02:18;8.20;99.90
13322;DHT22;6730;46.248;6.930;2022-11-24T18:04:44;8.30;99.90